Philadelphia, Pennsylvania
Traffic Map
Current Weather Conditions
Philadelphia, Pennsylvania
Clear
Clear
18°
Feels Like: 18°
Wind Chill: 18° Ceiling: Unl
Heat Index: 18° Visibility: 10mi
Dew Point: 12° Wind: 5mph
Humidity: 67% Direction: 350° (N)
Pressure: 30.16in Gusts: 0mph
Raw Report DataKPHL 280854Z 35004KT 10SM CLR 18/12 A3016 RMK AO2 SLP212 T01780117 53001 $
Traffic Incident Summary
Active as of:
Severity:
Category:
InformationThere was an issue retrieving the traffic information for this location. Please try a different location or try again shortly.
Advertisements
Track Severe Weather on mobile